Latest Weather Observations for Larapuna (Eddystone Point)

IDT60801

Issued at 3:05 am EDT Thursday 27 November 2014 (issued every 30 minutes, with the page automatically refreshed every 10 minutes)

About weather observations | Map of weather stations | Latest weather observations for TAS | Other Formats
Station Details ID: 092045 Name: LARAPUNA (EDDYSTONE POINT) Lat: -40.99 Lon: 148.35 Height: 19.7 m
Data from the previous 72 hours. | See also: Recent months at Larapuna (Eddystone Point)
Date/Time
EDT
Temp
°C
App
Temp
°C
Dew
Point
Rel
Hum
%
Delta-T
°C
Wind Press
QNH
hPa
Press
MSL
hPa
Rain
since 9 am
mm
Dir
 
Spd
km/h
Gust
km/h
Spd
kts
Gust
kts
27/03:00am 11.7 5.4 5.6 66 2.8 S 28 32 15 17 1020.7 1020.7 0.0
27/02:30am 11.8 5.6 6.3 69 2.6 S 28 32 15 17 1020.6 1020.6 0.0
27/02:00am 11.3 6.0 8.5 83 1.4 S 26 32 14 17 1020.8 1020.8 0.0
27/01:30am 12.1 8.8 9.5 84 1.3 SSW 17 20 9 11 1020.7 1020.7 0.0
27/01:00am 12.8 9.5 9.6 81 1.6 S 17 20 9 11 1020.6 1020.6 0.0
27/12:30am 13.1 10.0 9.0 76 2.1 SSE 15 19 8 10 1020.7 1020.7 0.0
27/12:00am 13.3 9.9 9.2 76 2.1 SSE 17 20 9 11 1020.5 1020.5 0.0
 
Date/Time
EDT
Temp
°C
App
Temp
°C
Dew
Point
Rel
Hum
%
Delta-T
°C
Wind Press
QNH
hPa
Press
MSL
hPa
Rain
since 9 am
mm
Dir
 
Spd
km/h
Gust
km/h
Spd
kts
Gust
kts
26/11:30pm 13.1 9.3 9.0 76 2.1 SSE 19 22 10 12 1020.4 1020.4 0.0
26/11:00pm 13.2 9.7 8.9 75 2.2 SE 17 22 9 12 1020.3 1020.3 0.0
26/10:30pm 13.3 9.3 9.0 75 2.2 SSE 20 24 11 13 1020.3 1020.3 0.0
26/10:00pm 13.5 9.7 9.2 75 2.2 SE 19 22 10 12 1019.9 1019.9 0.0
26/09:30pm 13.6 9.8 9.1 74 2.3 SE 19 24 10 13 1019.5 1019.5 0.0
26/09:00pm 13.6 9.6 9.1 74 2.3 SE 20 28 11 15 1019.0 1019.0 0.0
26/08:30pm 13.8 9.9 9.3 74 2.3 SE 20 26 11 14 1018.6 1018.6 0.0
26/08:00pm 14.1 9.7 9.1 72 2.5 SE 22 30 12 16 1018.2 1018.2 0.0
26/07:30pm 14.5 10.2 9.3 71 2.7 SE 22 30 12 16 1018.0 1018.0 0.0
26/07:00pm 15.1 10.5 9.5 69 2.9 SE 24 32 13 17 1017.4 1017.4 0.0
26/06:30pm 15.2 10.5 9.1 67 3.1 SE 24 33 13 18 1017.0 1017.0 0.0
26/06:00pm 16.4 10.8 10.0 66 3.4 ESE 30 37 16 20 1016.5 1016.5 0.0
26/05:30pm 17.5 12.2 8.4 55 4.7 ESE 26 30 14 16 1016.1 1016.1 0.0
26/05:00pm 17.9 14.0 8.7 55 4.8 E 19 24 10 13 1016.0 1016.0 0.0
26/04:30pm 18.9 15.3 10.5 58 4.5 E 20 24 11 13 1015.9 1015.9 0.0
26/04:00pm 18.3 14.1 9.9 58 4.5 ENE 22 26 12 14 1015.6 1015.6 0.0
26/03:30pm 20.0 15.9 10.1 53 5.3 ENE 22 26 12 14 1015.5 1015.5 0.0
26/03:00pm 19.3 15.6 9.5 53 5.2 E 19 26 10 14 1015.4 1015.4 0.0
26/02:30pm 18.0 12.4 8.6 54 4.9 ESE 28 35 15 19 1015.2 1015.2 0.0
26/02:00pm 17.5 12.5 10.9 65 3.6 ESE 28 33 15 18 1014.8 1014.8 0.0
26/01:30pm 18.1 15.0 11.7 66 3.5 SE 19 28 10 15 1014.5 1014.5 0.0
26/01:00pm 20.6 16.1 11.5 56 5.0 SE 26 33 14 18 1014.0 1014.0 0.0
26/12:30pm 20.4 17.0 11.3 56 5.0 S 20 26 11 14 1013.5 1013.5 0.0
26/12:00pm 20.9 15.7 5.7 37 7.6 W 22 39 12 21 1013.3 1013.3 0.0
26/11:30am 20.8 15.5 6.7 40 7.1 W 24 35 13 19 1013.4 1013.4 0.0
26/11:00am 19.4 12.9 6.5 43 6.5 W 30 39 16 21 1013.5 1013.5 0.0
26/10:30am 18.6 11.9 7.4 48 5.7 W 32 41 17 22 1013.4 1013.4 0.0
26/10:00am 18.3 11.8 8.3 52 5.1 WNW 32 44 17 24 1013.5 1013.5 0.0
26/09:30am 17.6 12.2 9.5 59 4.2 W 28 44 15 24 1013.6 1013.6 0.0
26/09:00am 16.7 10.7 10.1 65 3.5 WNW 32 46 17 25 1013.5 1013.5 0.0
26/08:47am 16.6 10.6 10.2 66 3.4 W 32 50 17 27 1013.6 1013.6 0.0
26/08:30am 15.7 10.1 10.0 69 3.0 WNW 30 46 16 25 1013.6 1013.6 0.0
26/08:00am 14.6 8.3 9.6 72 2.6 W 33 48 18 26 1013.5 1013.5 0.0
26/07:30am 14.2 9.7 10.0 76 2.2 WNW 24 35 13 19 1013.3 1013.3 0.0
26/07:00am 13.5 9.1 10.3 81 1.7 WNW 24 37 13 20 1013.2 1013.2 0.0
26/06:30am 13.3 9.5 9.9 80 1.7 WNW 20 30 11 16 1013.1 1013.1 0.0
26/06:00am 13.0 9.2 9.8 81 1.6 WNW 20 30 11 16 1012.9 1012.9 0.0
26/05:30am 12.7 6.6 9.9 83 1.4 WNW 32 57 17 31 1012.6 1012.6 0.0
26/05:15am 12.9 7.2 9.7 81 1.6 WNW 30 48 16 26 1012.5 1012.5 0.0
26/05:00am 13.0 7.2 9.4 79 1.8 NW 30 43 16 23 1012.4 1012.4 0.0
26/04:30am 13.0 7.8 8.9 76 2.1 WNW 26 41 14 22 1012.6 1012.6 0.0
26/04:00am 12.8 7.5 8.5 75 2.1 WNW 26 39 14 21 1012.6 1012.6 0.0
26/03:30am 12.7 6.5 8.0 73 2.3 WNW 30 44 16 24 1012.8 1012.8 0.0
26/03:00am 12.7 6.4 7.4 70 2.6 WNW 30 56 16 30 1013.1 1013.1 0.0
26/02:59am 12.7 6.8 7.6 71 2.5 WNW 28 56 15 30 1013.1 1013.1 0.0
26/02:30am 11.9 7.7 7.4 74 2.2 WNW 19 28 10 15 1013.5 1013.5 0.0
26/02:00am 11.6 6.0 7.1 74 2.2 NW 26 33 14 18 1013.6 1013.6 0.0
26/01:30am 11.5 5.1 6.8 73 2.2 WNW 30 46 16 25 1013.6 1013.6 0.0
26/01:00am 11.3 6.9 6.6 73 2.2 WNW 19 33 10 18 1013.9 1013.9 0.0
26/12:30am 11.4 7.0 6.7 73 2.2 WNW 19 28 10 15 1014.3 1014.3 0.0
26/12:00am 11.9 5.9 7.0 72 2.3 WNW 28 39 15 21 1014.1 1014.1 0.0
 
Date/Time
EDT
Temp
°C
App
Temp
°C
Dew
Point
Rel
Hum
%
Delta-T
°C
Wind Press
QNH
hPa
Press
MSL
hPa
Rain
since 9 am
mm
Dir
 
Spd
km/h
Gust
km/h
Spd
kts
Gust
kts
25/11:30pm 11.9 7.6 7.0 72 2.3 W 19 28 10 15 1014.1 1014.1 0.0
25/11:00pm 12.1 8.1 6.8 70 2.5 NW 17 28 9 15 1014.3 1014.3 0.0
25/10:30pm 12.3 7.4 6.8 69 2.6 WNW 22 37 12 20 1014.1 1014.1 0.0
25/10:00pm 12.6 6.9 6.6 67 2.9 WNW 26 39 14 21 1014.2 1014.2 0.0
25/09:44pm 12.9 6.8 6.5 65 3.1 WNW 28 48 15 26 1013.9 1013.9 0.0
25/09:30pm 12.9 7.6 6.7 66 3.0 WNW 24 41 13 22 1013.8 1013.8 0.0
25/09:00pm 13.4 7.5 7.6 68 2.8 WNW 28 43 15 23 1013.3 1013.3 0.0
25/08:36pm 13.7 7.1 7.9 68 2.9 WNW 32 50 17 27 1013.0 1013.0 0.0
25/08:30pm 13.8 7.1 8.2 69 2.8 WNW 33 50 18 27 1012.9 1012.9 0.0
25/08:20pm 13.9 7.7 7.9 67 3.0 WNW 30 48 16 26 1012.8 1012.8 0.0
25/08:00pm 14.3 7.7 7.6 64 3.3 WNW 32 44 17 24 1012.4 1012.4 0.0
25/07:30pm 14.9 8.4 8.8 67 3.1 WNW 33 48 18 26 1012.1 1012.1 0.0
25/07:06pm 15.6 8.6 8.6 63 3.6 WNW 35 54 19 29 1011.6 1011.6 0.0
25/07:00pm 15.7 8.4 8.9 64 3.5 WNW 37 50 20 27 1011.5 1011.5 0.0
25/06:33pm 16.4 8.8 8.9 61 3.9 WNW 39 57 21 31 1011.1 1011.1 0.0
25/06:30pm 16.3 8.3 9.0 62 3.8 W 41 57 22 31 1011.1 1011.1 0.0
25/06:19pm 16.4 7.8 8.9 61 3.9 WNW 44 63 24 34 1010.9 1010.9 0.0
25/06:00pm 16.8 8.4 8.8 59 4.1 WNW 43 57 23 31 1010.7 1010.7 0.0
25/05:30pm 17.2 8.5 8.4 56 4.5 WNW 44 65 24 35 1010.5 1010.5 0.0
25/05:00pm 17.7 9.0 8.6 55 4.7 WNW 44 63 24 34 1010.3 1010.3 0.0
25/04:44pm 18.3 10.2 8.8 54 4.9 W 41 59 22 32 1010.3 1010.3 0.0
25/04:30pm 17.9 8.7 8.2 53 5.0 WNW 46 63 25 34 1010.2 1010.2 0.0
25/04:25pm 18.0 9.4 8.3 53 5.0 WNW 43 61 23 33 1010.2 1010.2 0.0
25/04:16pm 19.0 9.5 8.4 50 5.5 W 48 59 26 32 1010.0 1010.0 0.0
25/04:00pm 17.9 8.1 8.5 54 4.9 WNW 50 72 27 39 1009.8 1009.8 0.0
25/03:34pm 19.5 11.1 8.8 50 5.6 WNW 43 61 23 33 1009.6 1009.6 0.0
25/03:30pm 19.2 10.4 8.2 49 5.7 WNW 44 61 24 33 1009.5 1009.5 0.0
25/03:08pm 19.0 9.8 8.1 49 5.6 WNW 46 65 25 35 1009.2 1009.2 0.0
25/03:00pm 19.1 9.1 7.8 48 5.8 WNW 50 63 27 34 1009.0 1009.0 0.0
25/02:30pm 19.2 10.7 8.5 50 5.6 WNW 43 61 23 33 1008.9 1008.9 0.0
25/02:00pm 19.1 9.3 8.7 51 5.4 WNW 50 70 27 38 1008.6 1008.6 0.0
25/01:33pm 19.4 11.6 8.4 49 5.7 WNW 39 57 21 31 1008.6 1008.6 0.0
25/01:30pm 19.1 11.2 7.8 48 5.8 WNW 39 54 21 29 1008.6 1008.6 0.0
25/01:00pm 18.4 10.4 8.9 54 5.0 WNW 41 61 22 33 1008.5 1008.5 0.0
25/12:32pm 18.1 10.4 8.7 54 4.9 WNW 39 61 21 33 1008.2 1008.2 0.0
25/12:30pm 17.9 10.2 8.5 54 4.8 WNW 39 56 21 30 1008.3 1008.3 0.0
25/12:05pm 18.7 12.3 8.7 52 5.2 WNW 32 50 17 27 1008.2 1008.2 0.0
25/12:00pm 18.4 11.6 9.2 55 4.8 WNW 35 50 19 27 1008.2 1008.2 0.0
25/11:30am 17.9 10.5 8.5 54 4.8 WNW 37 56 20 30 1007.9 1007.9 0.0
25/11:22am 17.4 10.9 8.8 57 4.4 WNW 33 52 18 28 1008.0 1008.0 0.0
25/11:00am 18.0 10.5 6.5 47 5.7 W 35 50 19 27 1007.7 1007.7 0.0
25/10:37am 17.4 11.3 6.6 49 5.3 WNW 28 46 15 25 1007.9 1007.9 0.0
25/10:30am 17.3 11.3 7.1 51 5.1 W 28 41 15 22 1007.9 1007.9 0.0
25/10:00am 16.2 11.2 8.2 59 4.1 WNW 24 32 13 17 1007.8 1007.8 0.0
25/09:30am 16.0 9.8 8.0 59 4.0 WNW 30 39 16 21 1007.5 1007.5 0.0
25/09:00am 15.4 8.8 7.9 61 3.8 W 32 41 17 22 1007.6 1007.6 3.6
25/08:30am 14.5 9.6 8.5 67 3.0 W 24 37 13 20 1007.3 1007.3 3.6
25/08:00am 14.0 10.1 8.6 70 2.7 W 19 30 10 16 1006.9 1006.9 3.6
25/07:30am 13.0 8.1 8.5 74 2.2 WNW 24 35 13 19 1006.5 1006.5 3.6
25/07:00am 12.1 8.5 8.2 77 1.9 WNW 17 28 9 15 1005.9 1005.9 3.6
25/06:30am 11.4 8.1 8.1 80 1.6 WNW 15 24 8 13 1005.6 1005.6 3.6
25/06:00am 11.1 7.0 8.0 81 1.5 WNW 19 26 10 14 1005.0 1005.0 3.6
25/05:30am 11.1 5.3 8.0 81 1.5 WNW 28 39 15 21 1004.3 1004.3 3.6
25/05:06am 11.0 4.7 7.5 79 1.7 WNW 30 48 16 26 1003.8 1003.8 3.6
25/05:00am 11.0 4.2 7.5 79 1.7 WNW 33 46 18 25 1003.6 1003.6 3.6
25/04:30am 11.1 3.8 7.2 77 1.9 W 35 59 19 32 1003.4 1003.4 3.6
25/04:01am 11.0 4.8 7.7 80 1.6 WNW 30 48 16 26 1003.6 1003.6 3.6
25/04:00am 11.0 4.3 7.5 79 1.7 WNW 32 48 17 26 1003.6 1003.6 3.6
25/03:58am 11.0 4.8 7.7 80 1.6 WNW 30 48 16 26 1003.6 1003.6 3.6
25/03:30am 10.5 4.1 6.8 78 1.7 W 30 44 16 24 1004.0 1004.0 3.6
25/03:00am 10.4 3.5 6.5 77 1.8 W 32 52 17 28 1003.9 1003.9 3.6
25/02:35am 10.2 3.3 6.5 78 1.7 W 32 50 17 27 1004.0 1004.0 3.6
25/02:30am 10.3 3.3 6.8 79 1.6 W 33 48 18 26 1004.0 1004.0 3.6
25/02:00am 10.3 4.2 6.8 79 1.7 W 28 44 15 24 1004.1 1004.1 3.6
25/01:33am 10.5 2.3 6.6 77 1.8 W 39 57 21 31 1003.7 1003.7 3.6
25/01:30am 10.5 2.7 6.6 77 1.8 W 37 54 20 29 1003.7 1003.7 3.6
25/01:13am 10.6 3.8 7.1 79 1.7 W 32 50 17 27 1003.9 1003.9 3.6
25/01:00am 10.9 4.3 7.6 80 1.6 W 32 46 17 25 1004.1 1004.1 3.6
25/12:30am 11.1 4.5 7.8 80 1.6 WNW 32 43 17 23 1004.7 1004.7 3.6
25/12:27am 11.2 4.6 7.7 79 1.7 WNW 32 50 17 27 1004.7 1004.7 3.6
25/12:00am 11.5 3.5 7.6 77 1.9 WNW 39 54 21 29 1004.3 1004.3 3.6
 
Date/Time
EDT
Temp
°C
App
Temp
°C
Dew
Point
Rel
Hum
%
Delta-T
°C
Wind Press
QNH
hPa
Press
MSL
hPa
Rain
since 9 am
mm
Dir
 
Spd
km/h
Gust
km/h
Spd
kts
Gust
kts
24/11:32pm 12.1 5.5 10.0 87 1.1 W 35 56 19 30 1003.8 1003.8 3.6
24/11:30pm 12.1 5.6 10.2 88 1.0 W 35 52 19 28 1003.8 1003.8 3.6
24/11:02pm 12.8 7.6 11.7 93 0.6 WNW 30 48 16 26 1003.9 1003.9 3.6
24/11:00pm 12.8 7.3 11.7 93 0.6 WNW 32 48 17 26 1003.8 1003.8 3.6
24/10:44pm 13.1 7.7 12.2 94 0.5 WNW 32 50 17 27 1004.0 1004.0 3.6
24/10:30pm 13.3 8.0 12.4 94 0.5 WNW 32 43 17 23 1004.2 1004.2 3.6
24/10:00pm 14.0 11.5 13.4 96 0.3 NW 19 28 10 15 1004.2 1004.2 3.6
24/09:30pm 14.4 12.4 13.9 97 0.3 WNW 17 22 9 12 1003.5 1003.5 3.6
24/09:00pm 14.8 11.2 14.3 97 0.3 WNW 26 35 14 19 1003.2 1003.2 3.6
24/08:30pm 15.1 10.9 14.6 97 0.3 NW 30 43 16 23 1002.9 1002.9 3.6
24/08:00pm 15.2 11.8 14.7 97 0.3 NW 26 35 14 19 1002.7 1002.7 3.6
24/07:30pm 15.4 10.9 14.9 97 0.3 NW 32 43 17 23 1002.8 1002.8 3.6
24/07:00pm 15.6 11.0 15.1 97 0.3 NW 33 48 18 26 1002.5 1002.5 3.6
24/06:40pm 15.5 11.8 14.9 96 0.3 NNW 28 46 15 25 1002.5 1002.5 3.6
24/06:30pm 15.2 12.5 14.6 96 0.3 NNW 22 30 12 16 1002.5 1002.5 3.6
24/06:00pm 14.8 10.0 14.0 95 0.5 NNW 32 41 17 22 1002.6 1002.6 3.6
24/05:30pm 14.5 9.5 13.5 94 0.6 N 32 44 17 24 1002.8 1002.8 3.6
24/05:21pm 14.4 9.4 13.4 94 0.6 N 32 50 17 27 1002.9 1002.9 3.6
24/05:00pm 14.1 8.7 12.8 92 0.7 N 33 46 18 25 1003.1 1003.1 3.4
24/04:30pm 14.2 8.2 12.2 88 1.1 N 35 46 19 25 1003.7 1003.7 3.0
24/04:00pm 14.6 7.2 12.6 88 1.1 N 43 54 23 29 1003.5 1003.5 3.0
24/03:30pm 13.8 8.3 12.4 91 0.8 N 33 44 18 24 1004.5 1004.5 2.8
24/03:00pm 13.6 9.9 12.7 94 0.5 N 24 30 13 16 1006.1 1006.1 2.8
24/02:30pm 13.8 8.6 12.7 93 0.6 N 32 41 17 22 1006.7 1006.7 2.6
24/02:00pm 14.3 10.4 13.2 93 0.6 N 26 32 14 17 1007.4 1007.4 2.0
24/01:30pm 14.4 10.8 13.1 92 0.7 N 24 30 13 16 1008.3 1008.3 1.8
24/01:00pm 14.4 10.8 13.0 91 0.8 N 24 30 13 16 1008.5 1008.5 1.8
24/12:30pm 14.1 11.9 12.1 88 1.1 N 15 20 8 11 1008.4 1008.4 1.4
24/12:00pm 14.9 11.0 12.2 84 1.5 N 24 28 13 15 1009.0 1009.0 0.6
24/11:30am 16.0 12.7 11.6 75 2.4 NW 20 28 11 15 1010.1 1010.1 0.2
24/11:00am 15.2 13.8 12.3 83 1.6 NW 11 17 6 9 1010.1 1010.1 0.2
24/10:30am 15.1 13.7 12.2 83 1.6 NNW 11 13 6 7 1009.7 1009.7 0.2
24/10:00am 15.3 15.1 13.1 87 1.2 WSW 6 11 3 6 1009.3 1009.3 0.2
24/09:30am 14.4 14.1 12.6 89 1.0 NW 6 11 3 6 1010.2 1010.2 0.2
24/09:00am 14.1 13.3 12.8 92 0.7 NW 9 15 5 8 1010.7 1010.7 0.2
24/08:30am 14.3 12.8 13.0 92 0.7 NW 13 15 7 8 1011.3 1011.3 0.0
24/08:00am 14.8 13.5 13.7 93 0.6 N 13 20 7 11 1010.8 1010.8 0.0
24/07:30am 13.7 14.2 12.8 94 0.5 W 2 7 1 4 1010.4 1010.4 0.0
24/07:00am 13.4 11.7 12.5 94 0.5 NNW 13 17 7 9 1011.2 1011.2 0.0
24/06:30am 12.6 10.6 11.5 93 0.6 NNW 13 17 7 9 1011.1 1011.1 0.0
24/06:00am 12.2 9.7 11.1 93 0.6 WNW 15 20 8 11 1010.9 1010.9 0.0
24/05:30am 12.2 9.3 11.1 93 0.6 NW 17 20 9 11 1010.8 1010.8 0.0
24/05:00am 12.4 9.5 11.0 91 0.7 NW 17 22 9 12 1010.9 1010.9 0.0
24/04:30am 12.6 9.4 11.2 91 0.7 WNW 19 24 10 13 1011.1 1011.1 0.0
24/04:00am 12.6 9.1 11.0 90 0.8 NW 20 24 11 13 1010.8 1010.8 0.0
24/03:30am 13.0 9.2 11.2 89 0.9 NW 22 28 12 15 1010.8 1010.8 0.0

Other Formats:

Comma delimited format used in spreadsheet applications
http://www.bom.gov.au/fwo/IDT60801/IDT60801.94983.axf

JavaScript Object Notation format (JSON) in row-major order
http://www.bom.gov.au/fwo/IDT60801/IDT60801.94983.json